Flight Track Log - Related Links

Times and Time Zones

All times are in EDT time to prevent confusion due to time zone crossing. See the ASQ6115 flight status page for this flight to view local times or setup timezone preferences in your user account.

Time Position Orientation Groundspeed Altitude Reporting Facility
EDT Latitude Longitude Course Direction KTS MPH feet Rate Location/Type
Sun 01:58:36 PM 41.9500 -87.9000 90° East 170 196 1,900  Level Chicago TRACON
Sun 01:59:36 PM 41.9000 -87.8833 166° South 205 236 4,000 1,671 Climbing Chicago TRACON
Sun 01:59:55 PM 41.8914 -87.8694 130° Southeast 216 249 4,100 2,222 Climbing Chicago Center
Sun 02:00:57 PM 41.8253 -87.7825 136° Southeast 254 292 7,000 2,855 Climbing Chicago Center
Sun 02:01:00 PM 41.9630 -87.4961 98° East  Level FlightAware Approximate
Sun 02:01:59 PM 41.8317 -87.6708 86° East 300 345 10,000  Level Chicago Center
Sun 02:02:00 PM 41.9497 -87.3625 95° East  Level FlightAware Approximate
Sun 02:03:00 PM 41.9402 -87.2284 95° East  Level FlightAware Approximate
Sun 02:03:01 PM 41.8531 -87.5572 76° East 310 357 12,500  Level Chicago Center
Sun 02:04:00 PM 41.9333 -87.0942 90° East  Level FlightAware Approximate
Sun 02:04:03 PM 41.8742 -87.4411 76° East 318 366 14,400  Level Chicago Center
Sun 02:05:05 PM 41.8694 -87.2989 93° East 359 413 15,200 1,016 Climbing Chicago Center
Sun 02:06:07 PM 41.8592 -87.1489 95° East 396 456 16,500 1,548 Climbing Chicago Center
Sun 02:07:09 PM 41.8461 -86.9644 95° East 411 473 18,400 1,742 Climbing Chicago Center
Sun 02:08:11 PM 41.8375 -86.8139 94° East 409 471 20,100 1,742 Climbing Chicago Center
Sun 02:09:13 PM 41.8267 -86.6561 95° East 411 473 22,000 1,403 Climbing Chicago Center
Sun 02:10:15 PM 41.8161 -86.5017 95° East 414 476 23,000 484 Climbing Chicago Center
Sun 02:11:17 PM 41.8056 -86.3347 95° East 442 509 23,000  Level Chicago Center
Sun 02:12:19 PM 41.7586 -86.1758 112° Southeast 453 521 23,000  Level Chicago Center
Sun 02:13:21 PM 41.6728 -86.0475 132° Southeast 461 531 23,000  Level Chicago Center
Sun 02:14:23 PM 41.5697 -85.8939 132° Southeast 466 536 23,000  Level Chicago Center
Sun 02:15:25 PM 41.4844 -85.7669 132° Southeast 466 536 23,000  Level Chicago Center
Sun 02:16:27 PM 41.3986 -85.6414 132° Southeast 465 535 23,000  Level Chicago Center
Sun 02:17:28 PM 41.3139 -85.5153 132° Southeast 463 533 23,000  Level Chicago Center
Sun 02:18:30 PM 41.2286 -85.3911 132° Southeast 460 529 23,000  Level Chicago Center
Sun 02:19:32 PM 41.1264 -85.2392 132° Southeast 462 532 23,000 -339 Level Chicago Center
Sun 02:20:34 PM 41.0408 -85.1144 132° Southeast 461 531 22,300 -1,548 Descending Chicago Center
Sun 02:21:36 PM 40.9575 -84.9961 133° Southeast 446 513 19,800 -2,613 Descending Chicago Center
Sun 02:22:38 PM 40.8769 -84.8839 133° Southeast 426 490 16,900 -2,323 Descending Chicago Center
Sun 02:23:40 PM 40.8011 -84.7683 131° Southeast 422 486 15,000 -919 Descending Chicago Center
Sun 02:24:42 PM 40.7261 -84.6575 132° Southeast 414 476 15,000 -756 Level Chicago Center
Sun 02:25:39 PM 40.6436 -84.5422 133° Southeast 405 466 13,500 -1,800 Descending Indianapolis Center
Sun 02:26:02 PM 40.6081 -84.4939 134° Southeast 400 460 12,600 -1,839 Descending Indianapolis Center
Sun 02:26:41 PM 40.5681 -84.4369 133° Southeast 395 455 11,600 -1,475 Descending Indianapolis Center
Sun 02:27:03 PM 40.5344 -84.3903 133° Southeast 387 445 11,100 -581 Descending Indianapolis Center
Sun 02:27:43 PM 40.4953 -84.3347 133° Southeast 383 441 11,000 -294 Descending Indianapolis Center
Sun 02:28:45 PM 40.4239 -84.2331 133° Southeast 376 433 10,600 -683 Descending Indianapolis Center
Sun 02:29:46 PM 40.3464 -84.1928 158° South 307 353 9,600 -1,317 Descending Indianapolis Center
Sun 02:30:48 PM 40.2567 -84.1778 173° South 283 326 7,900 -1,704 Descending Indianapolis Center
Sun 02:31:07 PM 40.2331 -84.1744 174° South 262 302 7,300 -1,935 Descending Indianapolis Center
Sun 02:31:50 PM 40.1825 -84.1664 173° South 273 314 5,900 -1,869 Descending Indianapolis Center
Sun 02:32:08 PM 40.1564 -84.1614 172° South 269 310 5,400 -1,452 Descending Indianapolis Center
Sun 02:32:52 PM 40.1094 -84.1536 173° South 268 308 4,400 -1,377 Descending Indianapolis Center
Sun 02:33:09 PM 40.0861 -84.1519 177° South 254 292 4,000 -1,412 Descending Indianapolis Center

Login

Don't have an account? Register now (free) for customized features, flight alerts, and more!